Time;durP1;ratioP1;P1;durP2;ratioP2;P2;SDS_P1;SDS_P2;PMS_P1;PMS_P2;Temp;Humidity;BMP_temperature;BMP_pressure;BME280_temperature;BME280_humidity;BME280_pressure;Samples;Min_cycle;Max_cycle;Signal;HPM_P1;HPM_P2
2023/01/11 00:01:53;;;;;;;656.13;272.57;;;;;;;;;;5038656;28;20225;-49
2023/01/11 00:04:19;;;;;;;609.73;253.43;;;;;;;;;;5016537;28;20196;-48
2023/01/11 00:06:45;;;;;;;662.33;266.13;;;;;;;;;;5002205;28;20297;-49
2023/01/11 00:09:12;;;;;;;663.20;278.43;;;;;;;;;;5037797;28;20596;-49
2023/01/11 00:11:38;;;;;;;590.33;240.13;;;;;;;;;;5040903;28;20229;-51
2023/01/11 00:14:05;;;;;;;646.90;257.80;;;;;;;;;;5040188;28;20212;-48
2023/01/11 00:16:31;;;;;;;586.03;239.87;;;;;;;;;;5007968;28;20270;-48
2023/01/11 00:18:57;;;;;;;644.73;262.77;;;;;;;;;;5040498;28;20327;-49
2023/01/11 00:21:25;;;;;;;592.07;240.40;;;;;;;;;;5021629;28;20321;-49
2023/01/11 00:23:51;;;;;;;693.90;273.63;;;;;;;;;;5019258;28;20239;-49
2023/01/11 00:26:17;;;;;;;599.30;234.43;;;;;;;;;;5002921;28;20704;-49
2023/01/11 00:28:44;;;;;;;606.37;238.13;;;;;;;;;;5021459;28;20253;-48
2023/01/11 00:31:10;;;;;;;569.50;231.57;;;;;;;;;;5021498;28;20176;-47
2023/01/11 00:33:36;;;;;;;595.43;234.60;;;;;;;;;;5002208;28;20216;-48
2023/01/11 00:36:02;;;;;;;661.10;267.47;;;;;;;;;;5021402;28;20269;-50
2023/01/11 00:38:50;;;;;;;595.87;239.03;;;;;;;;;;5001069;28;20223;-49
2023/01/11 00:49:31;;;;;;;609.33;238.37;;;;;;;;;;5020987;28;20260;-50
2023/01/11 00:51:57;;;;;;;554.00;227.97;;;;;;;;;;5019987;28;20310;-49
2023/01/11 00:54:23;;;;;;;707.23;281.83;;;;;;;;;;5020646;28;20299;-49
2023/01/11 00:56:49;;;;;;;709.70;284.93;;;;;;;;;;5019081;28;20639;-48
2023/01/11 00:59:16;;;;;;;668.30;266.50;;;;;;;;;;5020996;28;20257;-49
2023/01/11 01:01:43;;;;;;;636.07;261.00;;;;;;;;;;5016775;28;20699;-49
2023/01/11 01:04:09;;;;;;;606.70;243.83;;;;;;;;;;5020748;28;20764;-53
2023/01/11 01:06:35;;;;;;;635.20;261.40;;;;;;;;;;5016077;28;20258;-48
2023/01/11 01:09:02;;;;;;;661.87;270.47;;;;;;;;;;5018324;28;20216;-49
2023/01/11 01:11:28;;;;;;;605.07;250.00;;;;;;;;;;5019746;28;20219;-47
2023/01/11 01:16:41;;;;;;;691.60;276.40;;;;;;;;;;5019919;28;20574;-48
2023/01/11 01:19:07;;;;;;;601.67;245.17;;;;;;;;;;5019468;28;20180;-49
2023/01/11 01:21:34;;;;;;;652.83;261.40;;;;;;;;;;5019469;28;20799;-49
2023/01/11 01:24:00;;;;;;;577.87;231.67;;;;;;;;;;5019010;28;20354;-49
2023/01/11 01:26:26;;;;;;;583.73;233.37;;;;;;;;;;5019464;28;20753;-49
2023/01/11 01:28:52;;;;;;;631.23;254.83;;;;;;;;;;5000981;28;20176;-48
2023/01/11 01:31:18;;;;;;;656.40;268.07;;;;;;;;;;5020991;28;20196;-49
2023/01/11 01:33:44;;;;;;;628.90;256.37;;;;;;;;;;4983871;28;20231;-47
2023/01/11 01:36:11;;;;;;;572.03;239.03;;;;;;;;;;5020707;28;20224;-49
2023/01/11 01:38:37;;;;;;;703.70;289.03;;;;;;;;;;5018977;28;20220;-49
2023/01/11 01:41:03;;;;;;;601.10;238.53;;;;;;;;;;5019631;28;20254;-50
2023/01/11 01:43:45;;;;;;;604.80;248.60;;;;;;;;;;5013794;28;20207;-49
2023/01/11 01:46:11;;;;;;;620.90;258.30;;;;;;;;;;5040010;28;20211;-48
2023/01/11 01:48:39;;;;;;;564.20;237.57;;;;;;;;;;5020011;28;20676;-48
2023/01/11 01:51:06;;;;;;;638.70;264.23;;;;;;;;;;5035982;28;20216;-49
2023/01/11 01:53:34;;;;;;;662.57;269.37;;;;;;;;;;5001081;28;20241;-49
2023/01/11 01:56:01;;;;;;;619.43;253.77;;;;;;;;;;5032410;28;20212;-49
2023/01/11 01:58:34;;;;;;;697.27;288.03;;;;;;;;;;5020737;28;20658;-49
2023/01/11 02:03:46;;;;;;;566.50;229.57;;;;;;;;;;5019353;28;20275;-49
2023/01/11 02:06:12;;;;;;;579.03;238.27;;;;;;;;;;5018251;28;20270;-48
2023/01/11 02:08:40;;;;;;;680.33;269.17;;;;;;;;;;5018958;28;20212;-51
2023/01/11 02:11:28;;;;;;;659.43;259.77;;;;;;;;;;5018346;28;20215;-49
2023/01/11 02:13:53;;;;;;;713.43;285.17;;;;;;;;;;5010657;28;20183;-49
2023/01/11 02:16:20;;;;;;;619.77;251.67;;;;;;;;;;5020062;28;20183;-49
2023/01/11 02:18:46;;;;;;;630.33;254.47;;;;;;;;;;5018118;28;20219;-48
2023/01/11 02:21:15;;;;;;;689.33;264.47;;;;;;;;;;5005177;28;20216;-49
2023/01/11 02:24:02;;;;;;;665.60;261.80;;;;;;;;;;5027845;28;20463;-48
2023/01/11 02:26:40;;;;;;;565.17;226.17;;;;;;;;;;4991947;28;20291;-49
2023/01/11 02:29:17;;;;;;;649.10;254.30;;;;;;;;;;5004617;28;20204;-50
2023/01/11 02:31:48;;;;;;;552.53;221.17;;;;;;;;;;5012106;28;20594;-50
2023/01/11 02:34:32;;;;;;;601.07;243.13;;;;;;;;;;5038590;28;20234;-50
2023/01/11 02:37:12;;;;;;;551.30;220.83;;;;;;;;;;5017988;28;20781;-49
2023/01/11 02:39:59;;;;;;;646.90;263.53;;;;;;;;;;5018545;28;20223;-49
2023/01/11 02:45:13;;;;;;;600.87;245.80;;;;;;;;;;5017966;28;20346;-48
2023/01/11 02:47:58;;;;;;;588.03;247.23;;;;;;;;;;5017846;28;20593;-48
2023/01/11 02:50:32;;;;;;;574.57;225.00;;;;;;;;;;5034793;28;20215;-49
2023/01/11 02:53:16;;;;;;;624.93;254.63;;;;;;;;;;5034304;28;20266;-49
2023/01/11 02:55:48;;;;;;;594.13;230.33;;;;;;;;;;5036237;28;20206;-49
2023/01/11 02:58:16;;;;;;;648.33;263.57;;;;;;;;;;5038927;28;20630;-49
2023/01/11 03:00:43;;;;;;;611.90;251.40;;;;;;;;;;4983932;28;20227;-48
2023/01/11 03:03:14;;;;;;;547.80;221.57;;;;;;;;;;5037579;22;20431;-54
2023/01/11 03:05:49;;;;;;;567.53;231.10;;;;;;;;;;4995009;28;20630;-54
2023/01/11 03:08:24;;;;;;;634.33;251.17;;;;;;;;;;5002860;28;20307;-54
2023/01/11 03:11:02;;;;;;;513.73;206.17;;;;;;;;;;5012930;28;20256;-54
2023/01/11 03:13:28;;;;;;;658.93;272.17;;;;;;;;;;4974034;28;20310;-54
2023/01/11 03:16:00;;;;;;;487.47;206.07;;;;;;;;;;4985993;28;20220;-55
2023/01/11 03:18:29;;;;;;;525.40;206.63;;;;;;;;;;4977796;28;20690;-54
2023/01/11 03:21:07;;;;;;;472.80;197.80;;;;;;;;;;4980440;28;20631;-55
2023/01/11 03:23:50;;;;;;;663.60;278.97;;;;;;;;;;4965726;28;20434;-55
2023/01/11 03:26:41;;;;;;;621.17;258.73;;;;;;;;;;4961629;28;20270;-55
2023/01/11 03:29:24;;;;;;;566.93;240.47;;;;;;;;;;4980905;28;20314;-55
2023/01/11 03:31:54;;;;;;;689.97;295.27;;;;;;;;;;4974620;28;20209;-55
2023/01/11 03:34:40;;;;;;;550.47;228.17;;;;;;;;;;5001271;28;20189;-55
2023/01/11 03:37:12;;;;;;;584.63;240.27;;;;;;;;;;4979312;28;20221;-55
2023/01/11 03:39:38;;;;;;;539.47;223.90;;;;;;;;;;4979670;28;20654;-55
2023/01/11 03:42:06;;;;;;;578.47;228.80;;;;;;;;;;4979299;28;20221;-55
2023/01/11 03:44:35;;;;;;;671.20;288.63;;;;;;;;;;4969189;28;20276;-55
2023/01/11 03:47:04;;;;;;;550.30;225.53;;;;;;;;;;4994168;28;20815;-54
2023/01/11 03:49:36;;;;;;;438.00;178.10;;;;;;;;;;4982030;28;20200;-55
2023/01/11 03:52:05;;;;;;;612.07;244.93;;;;;;;;;;4985487;28;20331;-54
2023/01/11 03:54:31;;;;;;;591.90;242.27;;;;;;;;;;4979025;28;20217;-55
2023/01/11 03:57:04;;;;;;;578.27;241.30;;;;;;;;;;4989151;28;20334;-53
2023/01/11 03:59:30;;;;;;;529.97;208.50;;;;;;;;;;4976946;28;20692;-54
2023/01/11 04:01:57;;;;;;;532.30;212.00;;;;;;;;;;4977107;28;20234;-54
2023/01/11 04:04:23;;;;;;;583.50;231.00;;;;;;;;;;4984375;28;20244;-54
2023/01/11 04:06:49;;;;;;;574.07;219.40;;;;;;;;;;4982791;28;20221;-54
2023/01/11 04:09:16;;;;;;;672.70;266.47;;;;;;;;;;4997152;28;20601;-54
2023/01/11 04:11:41;;;;;;;597.90;227.10;;;;;;;;;;4985911;28;20285;-54
2023/01/11 04:14:07;;;;;;;622.03;251.50;;;;;;;;;;4976886;28;20583;-54
2023/01/11 04:16:34;;;;;;;519.67;203.50;;;;;;;;;;4988775;28;20717;-54
2023/01/11 04:19:01;;;;;;;616.83;246.93;;;;;;;;;;4984164;28;20233;-54
2023/01/11 04:21:27;;;;;;;625.20;238.23;;;;;;;;;;4978976;28;20236;-54
2023/01/11 04:23:54;;;;;;;604.23;250.40;;;;;;;;;;4981390;28;20324;-54
2023/01/11 04:26:20;;;;;;;591.23;227.97;;;;;;;;;;4999056;28;20221;-54
2023/01/11 04:28:46;;;;;;;583.43;225.33;;;;;;;;;;4975998;28;20181;-54
2023/01/11 04:31:13;;;;;;;625.57;255.83;;;;;;;;;;4978365;28;21902;-54
2023/01/11 04:33:39;;;;;;;632.63;267.83;;;;;;;;;;4978865;28;20232;-54
2023/01/11 04:36:09;;;;;;;607.97;263.27;;;;;;;;;;4990412;28;20260;-54
2023/01/11 04:38:38;;;;;;;577.10;248.60;;;;;;;;;;4984041;28;20220;-54
2023/01/11 04:43:49;;;;;;;567.53;213.60;;;;;;;;;;4978461;28;20211;-54
2023/01/11 04:46:15;;;;;;;623.23;255.63;;;;;;;;;;4979055;28;20668;-54
2023/01/11 04:48:41;;;;;;;535.13;219.53;;;;;;;;;;5002023;28;20360;-54
2023/01/11 04:51:08;;;;;;;601.03;243.10;;;;;;;;;;4973832;28;20216;-56
2023/01/11 04:53:34;;;;;;;584.87;233.27;;;;;;;;;;4979436;28;21279;-55
2023/01/11 04:56:01;;;;;;;612.23;248.23;;;;;;;;;;4974567;28;20636;-55
2023/01/11 04:58:27;;;;;;;585.43;224.03;;;;;;;;;;4980955;28;20277;-55
2023/01/11 05:00:53;;;;;;;597.93;238.83;;;;;;;;;;4980994;28;20224;-55
2023/01/11 05:03:19;;;;;;;559.80;229.97;;;;;;;;;;4991645;28;20810;-55
2023/01/11 05:05:54;;;;;;;593.73;232.90;;;;;;;;;;4984925;28;20571;-55
2023/01/11 05:08:20;;;;;;;549.10;223.50;;;;;;;;;;4995855;28;20294;-55
2023/01/11 05:10:51;;;;;;;527.83;200.03;;;;;;;;;;4981637;28;20289;-55
2023/01/11 05:13:17;;;;;;;602.23;237.07;;;;;;;;;;4977738;28;20219;-55
2023/01/11 05:15:43;;;;;;;630.50;246.80;;;;;;;;;;4990445;28;20251;-55
2023/01/11 05:18:09;;;;;;;625.83;235.83;;;;;;;;;;4994127;28;20213;-56
2023/01/11 05:20:35;;;;;;;611.13;239.90;;;;;;;;;;4979351;28;20749;-55
2023/01/11 05:23:01;;;;;;;580.00;222.27;;;;;;;;;;4979267;28;20225;-54
2023/01/11 05:25:27;;;;;;;570.90;223.50;;;;;;;;;;4980388;28;20222;-55
2023/01/11 05:27:53;;;;;;;596.67;233.53;;;;;;;;;;4984428;28;20220;-56
2023/01/11 05:30:19;;;;;;;605.50;240.93;;;;;;;;;;4986093;28;20243;-56
2023/01/11 05:32:45;;;;;;;551.93;215.63;;;;;;;;;;4983732;28;20553;-55
2023/01/11 05:35:11;;;;;;;586.13;233.03;;;;;;;;;;4983113;28;20231;-55
2023/01/11 05:37:38;;;;;;;568.03;229.90;;;;;;;;;;4983606;28;20231;-54
2023/01/11 05:40:05;;;;;;;641.20;265.70;;;;;;;;;;4981441;28;20189;-54
2023/01/11 05:42:31;;;;;;;611.53;250.80;;;;;;;;;;4979850;28;20217;-55
2023/01/11 05:47:42;;;;;;;572.83;215.57;;;;;;;;;;4981117;28;20610;-54
2023/01/11 05:50:08;;;;;;;569.77;227.37;;;;;;;;;;4981969;28;20229;-54
2023/01/11 05:52:34;;;;;;;585.63;229.03;;;;;;;;;;4982768;28;20208;-55
2023/01/11 05:55:00;;;;;;;545.80;215.20;;;;;;;;;;4985036;28;20208;-55
2023/01/11 05:57:26;;;;;;;649.37;262.13;;;;;;;;;;4972670;28;20220;-56
2023/01/11 05:59:52;;;;;;;558.83;216.80;;;;;;;;;;4981238;28;20224;-56
2023/01/11 06:02:18;;;;;;;646.03;253.33;;;;;;;;;;4983614;28;20452;-56
2023/01/11 06:04:45;;;;;;;622.60;246.57;;;;;;;;;;4989672;28;20204;-54
2023/01/11 06:07:11;;;;;;;665.40;265.90;;;;;;;;;;4979394;28;20292;-55
2023/01/11 06:09:37;;;;;;;535.97;206.60;;;;;;;;;;4990921;28;20373;-54
2023/01/11 06:12:03;;;;;;;568.03;232.80;;;;;;;;;;4982630;28;20221;-54
2023/01/11 06:14:29;;;;;;;631.77;253.63;;;;;;;;;;4984974;28;20620;-55
2023/01/11 06:16:55;;;;;;;583.97;224.33;;;;;;;;;;4986729;28;20851;-55
2023/01/11 06:19:21;;;;;;;612.83;242.03;;;;;;;;;;4972642;28;20181;-55
2023/01/11 06:21:47;;;;;;;650.23;277.37;;;;;;;;;;4958330;28;20704;-55
2023/01/11 06:24:13;;;;;;;568.97;230.57;;;;;;;;;;4951109;28;20263;-54
2023/01/11 06:26:39;;;;;;;596.87;251.80;;;;;;;;;;4946143;28;20306;-54
2023/01/11 06:29:05;;;;;;;584.10;250.23;;;;;;;;;;4952443;28;20753;-54
2023/01/11 06:31:31;;;;;;;539.53;216.13;;;;;;;;;;4988340;28;20224;-53
2023/01/11 06:33:57;;;;;;;540.23;228.80;;;;;;;;;;4996172;28;20213;-54
2023/01/11 06:36:23;;;;;;;462.10;186.90;;;;;;;;;;4986657;28;20267;-54
2023/01/11 06:38:52;;;;;;;455.93;182.27;;;;;;;;;;4993798;28;20229;-54
2023/01/11 06:41:18;;;;;;;445.77;182.30;;;;;;;;;;5002714;28;20230;-54
2023/01/11 06:43:45;;;;;;;526.47;208.80;;;;;;;;;;5000714;28;20296;-54
2023/01/11 06:46:12;;;;;;;492.47;202.70;;;;;;;;;;5000645;28;20169;-54
2023/01/11 06:48:38;;;;;;;584.07;231.20;;;;;;;;;;4999042;28;20311;-54
2023/01/11 06:51:04;;;;;;;525.30;208.63;;;;;;;;;;5014517;28;20762;-53
2023/01/11 06:53:30;;;;;;;541.87;218.03;;;;;;;;;;5011614;28;20209;-54
2023/01/11 06:55:57;;;;;;;524.33;207.63;;;;;;;;;;4979490;28;20223;-54
2023/01/11 06:58:24;;;;;;;567.20;223.63;;;;;;;;;;4980360;28;20188;-54
2023/01/11 07:00:51;;;;;;;527.50;218.77;;;;;;;;;;4979360;28;20217;-54
2023/01/11 07:03:17;;;;;;;584.33;232.73;;;;;;;;;;4980362;28;20229;-54
2023/01/11 07:05:43;;;;;;;594.80;243.57;;;;;;;;;;4979871;28;20551;-56
2023/01/11 07:08:09;;;;;;;636.27;262.43;;;;;;;;;;4971098;28;20694;-57
2023/01/11 07:10:35;;;;;;;667.23;264.30;;;;;;;;;;4980703;28;20730;-59
2023/01/11 07:13:02;;;;;;;628.80;260.50;;;;;;;;;;4993387;28;20216;-57
2023/01/11 07:15:28;;;;;;;585.20;232.97;;;;;;;;;;4998412;28;20223;-53
2023/01/11 07:17:55;;;;;;;532.40;211.23;;;;;;;;;;5000144;28;20650;-54
2023/01/11 07:20:21;;;;;;;546.73;213.23;;;;;;;;;;5000561;28;20295;-53
2023/01/11 07:22:47;;;;;;;570.93;231.10;;;;;;;;;;5014674;28;20213;-54
2023/01/11 07:25:13;;;;;;;521.27;215.33;;;;;;;;;;5000773;28;20623;-54
2023/01/11 07:27:39;;;;;;;586.10;227.43;;;;;;;;;;5000054;28;20706;-54
2023/01/11 07:30:06;;;;;;;580.50;229.63;;;;;;;;;;4999839;28;20708;-54
2023/01/11 07:32:31;;;;;;;567.90;224.23;;;;;;;;;;5003877;28;20228;-54
2023/01/11 07:35:01;;;;;;;545.97;218.13;;;;;;;;;;5020224;28;20726;-54
2023/01/11 07:37:31;;;;;;;577.63;238.17;;;;;;;;;;5004712;28;20289;-54
2023/01/11 07:39:57;;;;;;;554.77;213.50;;;;;;;;;;5018825;28;20212;-54
2023/01/11 07:45:09;;;;;;;567.30;209.07;;;;;;;;;;5003309;28;20253;-55
2023/01/11 07:47:35;;;;;;;556.93;216.57;;;;;;;;;;5002585;28;20221;-53
2023/01/11 07:50:01;;;;;;;562.63;221.10;;;;;;;;;;5002461;28;20216;-55
2023/01/11 07:52:27;;;;;;;569.20;223.00;;;;;;;;;;5003681;28;20193;-54
2023/01/11 07:54:53;;;;;;;547.57;219.47;;;;;;;;;;5018912;28;20220;-54
2023/01/11 07:57:19;;;;;;;540.20;214.50;;;;;;;;;;5004590;28;20232;-54
2023/01/11 07:59:45;;;;;;;522.53;207.93;;;;;;;;;;5002603;28;20217;-54
2023/01/11 08:02:11;;;;;;;506.83;211.43;;;;;;;;;;5003052;28;20635;-54
2023/01/11 08:04:37;;;;;;;587.73;235.47;;;;;;;;;;5002928;28;20386;-54
2023/01/11 08:07:04;;;;;;;555.80;226.90;;;;;;;;;;5004056;28;20223;-54
2023/01/11 08:09:30;;;;;;;582.63;236.23;;;;;;;;;;5003212;28;20275;-54
2023/01/11 08:14:41;;;;;;;567.97;222.23;;;;;;;;;;5001628;28;20643;-54
2023/01/11 08:17:13;;;;;;;562.10;225.50;;;;;;;;;;5002853;28;20219;-54
2023/01/11 08:19:39;;;;;;;536.97;221.23;;;;;;;;;;5002218;28;20180;-54
2023/01/11 08:22:05;;;;;;;547.53;214.00;;;;;;;;;;5014073;28;20236;-54
2023/01/11 08:24:33;;;;;;;552.30;224.37;;;;;;;;;;5005476;28;20221;-54
2023/01/11 08:26:59;;;;;;;538.23;209.90;;;;;;;;;;4994563;28;20608;-53
2023/01/11 08:29:25;;;;;;;542.20;214.47;;;;;;;;;;5002861;28;20288;-54
2023/01/11 08:31:52;;;;;;;571.23;228.77;;;;;;;;;;5014096;28;20207;-54
2023/01/11 08:34:18;;;;;;;536.00;214.30;;;;;;;;;;4987396;28;20181;-54
2023/01/11 08:36:44;;;;;;;560.83;220.53;;;;;;;;;;5003053;28;20227;-54
2023/01/11 08:39:10;;;;;;;550.80;221.03;;;;;;;;;;5003064;28;20224;-53
2023/01/11 08:41:37;;;;;;;521.00;213.63;;;;;;;;;;5002055;28;20220;-54
2023/01/11 08:44:03;;;;;;;587.77;234.63;;;;;;;;;;5016075;28;20228;-54
2023/01/11 08:46:32;;;;;;;534.63;213.23;;;;;;;;;;5003760;28;20577;-54
2023/01/11 08:48:59;;;;;;;575.17;235.10;;;;;;;;;;5002665;28;20227;-55
2023/01/11 08:51:25;;;;;;;567.93;231.60;;;;;;;;;;5003220;28;20702;-54
2023/01/11 08:53:51;;;;;;;575.97;235.77;;;;;;;;;;5003414;28;20215;-54
2023/01/11 08:56:17;;;;;;;539.03;217.87;;;;;;;;;;5003210;28;20400;-54
2023/01/11 08:58:43;;;;;;;560.23;225.40;;;;;;;;;;5002923;28;20454;-54
2023/01/11 09:01:11;;;;;;;547.37;215.70;;;;;;;;;;5018257;28;20790;-55
2023/01/11 09:03:37;;;;;;;610.70;271.00;;;;;;;;;;5016994;22;21298;-50
2023/01/11 09:06:03;;;;;;;535.63;244.53;;;;;;;;;;4994964;28;20208;-47
2023/01/11 09:08:29;;;;;;;588.63;269.17;;;;;;;;;;4997903;28;20429;-49
2023/01/11 09:10:58;;;;;;;642.30;293.10;;;;;;;;;;4997921;28;20259;-49
2023/01/11 09:13:25;;;;;;;678.37;297.17;;;;;;;;;;4977600;28;20555;-51
2023/01/11 09:15:54;;;;;;;585.60;267.53;;;;;;;;;;4980925;28;20229;-48
2023/01/11 09:18:21;;;;;;;576.30;251.03;;;;;;;;;;4980983;28;20204;-48
2023/01/11 09:20:50;;;;;;;645.27;291.10;;;;;;;;;;4978422;28;20228;-48
2023/01/11 09:23:16;;;;;;;619.67;280.50;;;;;;;;;;4977681;28;20224;-48
2023/01/11 09:25:42;;;;;;;617.20;272.17;;;;;;;;;;4989200;28;20211;-48
2023/01/11 09:28:08;;;;;;;580.90;261.63;;;;;;;;;;4992996;28;20185;-48
2023/01/11 09:30:37;;;;;;;614.97;274.07;;;;;;;;;;4981289;28;20298;-50
2023/01/11 09:33:05;;;;;;;607.10;266.87;;;;;;;;;;4966020;28;20562;-48
2023/01/11 09:35:31;;;;;;;663.27;298.00;;;;;;;;;;4996578;28;20651;-50
2023/01/11 09:37:58;;;;;;;682.23;300.07;;;;;;;;;;4974795;28;20402;-48
2023/01/11 09:40:45;;;;;;;649.83;282.00;;;;;;;;;;4983686;28;20253;-49
2023/01/11 09:43:13;;;;;;;625.70;279.67;;;;;;;;;;4984976;28;20637;-48
2023/01/11 09:45:45;;;;;;;736.90;318.57;;;;;;;;;;4983084;28;20232;-48
2023/01/11 09:48:27;;;;;;;714.67;322.93;;;;;;;;;;4979192;28;20265;-48
2023/01/11 09:50:53;;;;;;;678.73;308.10;;;;;;;;;;4981092;28;20331;-49
2023/01/11 09:53:29;;;;;;;636.77;286.30;;;;;;;;;;4980609;28;20911;-49
2023/01/11 09:55:58;;;;;;;677.60;301.57;;;;;;;;;;4970133;28;20226;-49
2023/01/11 09:58:28;;;;;;;643.67;287.67;;;;;;;;;;4963371;28;20261;-49
2023/01/11 10:01:03;;;;;;;718.33;319.40;;;;;;;;;;4979956;28;20420;-49
2023/01/11 10:03:44;;;;;;;685.23;315.70;;;;;;;;;;4978193;28;20708;-49
2023/01/11 10:06:18;;;;;;;664.87;300.30;;;;;;;;;;4993205;28;20209;-49
2023/01/11 10:08:57;;;;;;;686.77;315.70;;;;;;;;;;4978770;28;20213;-49
2023/01/11 10:11:26;;;;;;;702.10;323.67;;;;;;;;;;4973417;28;20219;-49
2023/01/11 10:14:21;;;;;;;704.93;315.77;;;;;;;;;;4972872;28;20271;-49
2023/01/11 10:16:55;;;;;;;748.73;335.37;;;;;;;;;;4976283;28;20358;-49
2023/01/11 10:19:34;;;;;;;721.13;319.83;;;;;;;;;;4978215;28;20240;-49
2023/01/11 10:22:05;;;;;;;675.57;307.70;;;;;;;;;;4988290;28;20225;-49
2023/01/11 10:24:37;;;;;;;654.20;287.03;;;;;;;;;;4978868;28;20238;-49
2023/01/11 10:27:08;;;;;;;616.00;284.47;;;;;;;;;;4971035;28;20754;-49
2023/01/11 10:32:38;;;;;;;711.20;316.83;;;;;;;;;;4955198;28;20621;-49
2023/01/11 10:35:28;;;;;;;718.67;320.80;;;;;;;;;;4954531;28;20659;-49
2023/01/11 10:38:27;;;;;;;717.30;322.40;;;;;;;;;;4952036;28;20485;-49
2023/01/11 10:41:03;;;;;;;675.23;303.97;;;;;;;;;;4957142;28;20196;-49
2023/01/11 10:43:31;;;;;;;750.67;342.80;;;;;;;;;;4953762;28;20181;-49
2023/01/11 10:46:00;;;;;;;749.33;336.07;;;;;;;;;;4960092;28;20218;-49
2023/01/11 10:48:41;;;;;;;673.90;305.77;;;;;;;;;;4954034;28;20293;-50
2023/01/11 10:51:10;;;;;;;700.53;313.40;;;;;;;;;;4957318;28;20781;-49
2023/01/11 10:53:42;;;;;;;736.20;333.10;;;;;;;;;;4961825;28;20477;-50
2023/01/11 10:56:29;;;;;;;740.40;335.70;;;;;;;;;;4951017;28;20343;-49
2023/01/11 10:59:17;;;;;;;750.37;339.57;;;;;;;;;;4955213;28;20221;-49
2023/01/11 11:01:59;;;;;;;646.30;290.67;;;;;;;;;;4957293;28;20674;-49
2023/01/11 11:04:49;;;;;;;672.07;312.37;;;;;;;;;;4953576;28;20694;-49
2023/01/11 11:07:18;;;;;;;654.60;303.83;;;;;;;;;;4972361;28;20232;-50
2023/01/11 11:09:57;;;;;;;713.40;326.90;;;;;;;;;;4973261;28;20294;-49
2023/01/11 11:12:26;;;;;;;742.43;339.53;;;;;;;;;;4971403;28;20247;-49
2023/01/11 11:14:56;;;;;;;687.57;315.23;;;;;;;;;;4970512;28;20217;-49
2023/01/11 11:17:24;;;;;;;686.50;306.67;;;;;;;;;;4973357;28;20229;-49
2023/01/11 11:19:51;;;;;;;666.83;307.70;;;;;;;;;;4995444;28;20178;-49
2023/01/11 11:22:18;;;;;;;701.13;321.57;;;;;;;;;;4978129;28;20827;-49
2023/01/11 11:25:14;;;;;;;655.27;284.73;;;;;;;;;;4989590;28;20566;-49
2023/01/11 11:27:42;;;;;;;728.73;329.77;;;;;;;;;;4961995;28;20690;-49
2023/01/11 11:30:12;;;;;;;650.33;295.73;;;;;;;;;;4972125;28;20209;-49
2023/01/11 11:32:40;;;;;;;710.83;311.87;;;;;;;;;;4979379;28;20737;-49
2023/01/11 11:35:07;;;;;;;637.93;288.00;;;;;;;;;;4976245;28;20350;-49
2023/01/11 11:37:35;;;;;;;755.70;338.27;;;;;;;;;;4979855;28;20181;-49
2023/01/11 11:40:01;;;;;;;684.93;306.70;;;;;;;;;;4976626;28;20462;-49
2023/01/11 11:42:27;;;;;;;761.77;349.93;;;;;;;;;;4969078;28;20535;-50
2023/01/11 11:45:08;;;;;;;620.67;280.27;;;;;;;;;;4992227;28;20496;-49
2023/01/11 11:47:34;;;;;;;696.87;310.97;;;;;;;;;;4970241;28;20249;-49
2023/01/11 11:50:19;;;;;;;689.87;307.20;;;;;;;;;;4965912;28;20213;-49
2023/01/11 11:52:47;;;;;;;751.20;344.27;;;;;;;;;;4970694;28;20271;-50
2023/01/11 11:55:13;;;;;;;702.27;320.77;;;;;;;;;;4971095;28;20182;-49
2023/01/11 11:57:41;;;;;;;669.13;303.60;;;;;;;;;;4969472;28;20217;-49
2023/01/11 12:00:08;;;;;;;665.57;303.93;;;;;;;;;;4971910;28;20848;-49
2023/01/11 12:02:36;;;;;;;652.03;289.50;;;;;;;;;;4975144;28;20497;-49
2023/01/11 12:05:07;;;;;;;689.53;320.37;;;;;;;;;;4986038;28;20259;-49
2023/01/11 12:07:37;;;;;;;674.77;310.93;;;;;;;;;;4973596;28;20497;-49
2023/01/11 12:10:06;;;;;;;709.37;318.57;;;;;;;;;;4988719;28;20219;-49
2023/01/11 12:12:33;;;;;;;684.03;313.47;;;;;;;;;;4972329;28;20317;-49
2023/01/11 12:15:14;;;;;;;692.00;318.17;;;;;;;;;;4964789;28;20386;-49
2023/01/11 12:17:40;;;;;;;723.03;330.97;;;;;;;;;;4969271;28;20741;-49
2023/01/11 12:20:18;;;;;;;715.27;330.33;;;;;;;;;;4967921;28;20679;-49
2023/01/11 12:22:44;;;;;;;715.33;325.10;;;;;;;;;;4973658;28;20652;-49
2023/01/11 12:25:13;;;;;;;774.53;346.03;;;;;;;;;;4973623;28;20201;-49
2023/01/11 12:27:52;;;;;;;635.13;287.60;;;;;;;;;;4972285;28;20301;-49
2023/01/11 12:30:44;;;;;;;761.23;345.50;;;;;;;;;;4974401;28;20300;-51
2023/01/11 12:33:10;;;;;;;727.43;330.27;;;;;;;;;;4978859;28;20236;-51
2023/01/11 12:35:36;;;;;;;734.20;339.40;;;;;;;;;;4970401;28;20262;-50
2023/01/11 12:38:09;;;;;;;787.90;366.20;;;;;;;;;;4964127;28;20218;-50
2023/01/11 12:40:35;;;;;;;654.20;294.67;;;;;;;;;;4954145;28;20248;-51
2023/01/11 12:43:15;;;;;;;651.63;300.23;;;;;;;;;;4958557;28;20198;-50
2023/01/11 12:45:50;;;;;;;713.07;331.47;;;;;;;;;;4959435;28;20219;-50
2023/01/11 12:48:36;;;;;;;733.67;341.83;;;;;;;;;;4967107;28;20536;-52
2023/01/11 12:51:11;;;;;;;661.63;304.67;;;;;;;;;;4975500;28;20220;-50
2023/01/11 12:53:37;;;;;;;700.73;324.50;;;;;;;;;;4975217;28;20674;-51
2023/01/11 12:56:14;;;;;;;658.60;300.67;;;;;;;;;;4976822;28;20504;-49
2023/01/11 12:58:48;;;;;;;704.80;315.43;;;;;;;;;;4976867;28;20180;-50
2023/01/11 13:01:15;;;;;;;758.40;338.50;;;;;;;;;;4971763;28;20182;-49
2023/01/11 13:03:50;;;;;;;760.57;342.43;;;;;;;;;;4977030;28;20225;-50
2023/01/11 13:06:23;;;;;;;674.93;294.67;;;;;;;;;;4965790;28;20273;-50
2023/01/11 13:08:52;;;;;;;711.17;325.07;;;;;;;;;;4972391;28;20229;-50
2023/01/11 13:11:33;;;;;;;730.30;335.30;;;;;;;;;;4956713;28;20465;-49
2023/01/11 13:14:32;;;;;;;683.33;326.87;;;;;;;;;;4953226;28;20572;-49
2023/01/11 13:17:00;;;;;;;640.60;290.63;;;;;;;;;;4936480;28;20230;-49
2023/01/11 13:19:31;;;;;;;690.93;313.77;;;;;;;;;;4963007;28;20237;-50
2023/01/11 13:22:03;;;;;;;650.63;295.13;;;;;;;;;;4956917;28;20270;-51
2023/01/11 13:24:30;;;;;;;691.20;306.30;;;;;;;;;;4977858;28;20260;-51
2023/01/11 13:27:01;;;;;;;690.33;308.87;;;;;;;;;;4983109;28;20270;-49
2023/01/11 13:29:29;;;;;;;711.20;322.30;;;;;;;;;;4974073;28;20648;-49
2023/01/11 13:31:57;;;;;;;711.67;311.07;;;;;;;;;;4973340;28;20244;-49
2023/01/11 13:34:23;;;;;;;742.63;333.60;;;;;;;;;;4976823;28;20722;-49
2023/01/11 13:36:53;;;;;;;659.47;296.57;;;;;;;;;;4980472;28;20717;-52
2023/01/11 13:39:19;;;;;;;733.20;327.87;;;;;;;;;;4975573;28;20259;-50
2023/01/11 13:41:53;;;;;;;692.47;320.60;;;;;;;;;;4975991;28;20300;-49
2023/01/11 13:44:24;;;;;;;769.57;347.70;;;;;;;;;;4976743;28;20731;-52
2023/01/11 13:47:06;;;;;;;674.67;293.07;;;;;;;;;;4971200;28;20189;-50
2023/01/11 13:49:51;;;;;;;704.47;318.10;;;;;;;;;;4973452;28;20292;-50
2023/01/11 13:52:18;;;;;;;737.33;330.63;;;;;;;;;;4975290;28;20289;-49
2023/01/11 13:54:58;;;;;;;648.70;297.50;;;;;;;;;;4969735;28;20380;-49
2023/01/11 13:57:29;;;;;;;686.53;311.03;;;;;;;;;;4976083;28;20323;-50
2023/01/11 14:00:00;;;;;;;767.23;339.57;;;;;;;;;;4975396;28;20361;-50
2023/01/11 14:02:32;;;;;;;670.27;309.93;;;;;;;;;;4972988;28;20216;-49
2023/01/11 14:05:17;;;;;;;736.67;322.77;;;;;;;;;;4970215;28;20589;-50
2023/01/11 14:07:48;;;;;;;690.40;310.90;;;;;;;;;;4975680;28;20540;-50
2023/01/11 14:10:20;;;;;;;648.93;296.53;;;;;;;;;;4968434;28;20226;-49
2023/01/11 14:13:00;;;;;;;665.73;307.17;;;;;;;;;;4965444;28;20495;-49
2023/01/11 14:15:31;;;;;;;716.77;325.50;;;;;;;;;;4957122;28;20257;-50
2023/01/11 14:18:04;;;;;;;716.73;329.40;;;;;;;;;;4966960;28;20281;-48
2023/01/11 14:20:33;;;;;;;791.40;368.67;;;;;;;;;;4957851;28;20246;-50
2023/01/11 14:22:59;;;;;;;696.53;310.50;;;;;;;;;;4967731;28;21122;-50
2023/01/11 14:25:25;;;;;;;815.07;360.00;;;;;;;;;;4972117;28;20859;-50
2023/01/11 14:28:01;;;;;;;690.93;301.20;;;;;;;;;;4965750;28;20220;-50
2023/01/11 14:30:35;;;;;;;713.20;309.13;;;;;;;;;;4969396;28;20320;-51
2023/01/11 14:33:07;;;;;;;691.77;315.17;;;;;;;;;;4993137;28;20235;-49
2023/01/11 14:35:39;;;;;;;734.33;330.17;;;;;;;;;;4975600;28;20204;-50
2023/01/11 14:38:09;;;;;;;694.50;311.67;;;;;;;;;;4971668;28;20298;-50